Aérodrome :
LOGIN :

S'inscrire | Disclaimer

   EN    FR    IT 

 










Légende :    VFR   VFR Marginal   IFR   IFR Intensif   IFR Très Intensif
Visi : 
Plafond : 
>= 8 km
>= 3000ft
5 à 8 km
1000 à 3000 ft
1500m à 5 km
500 à 1000 ft
800 à 1500m
200 à 500 ft
< 800m
< 200 ft
Symboles :   Orages  Brouillard  Fortes neiges  Fortes précipitations  Vent > 20 kt
SIGMETs :   Divers  Orages  Givrage  Turbulence  Onde Orograph.  Cendres Volcan.







- Altitude de l'aérodrome : 22 ft
- Code IATA : TUN


DTTA - Tunis Carthage

DERNIER METAR :
  • 210230Z 32003KT 8000 SCT023 19/17 Q1018

METARs EXPIRÉS :
  • 210200Z VRB01KT 8000 SCT023 19/17 Q1018
  • 210130Z 32004KT 8000 SCT023 19/17 Q1018
  • 210100Z 29007KT 8000 SCT023 19/17 Q1018
  • 210030Z 29005KT 8000 SCT023 19/17 Q1018
  • 210000Z 29008KT 250V320 8000 SCT023 19/17 Q1018

TAF TAF DTTA
Valide du 21 à 00h jusqu'au 22 à 00h UTC


202300Z 2100/2124 29005KT 9999 SCT023 SCT033
PROB40
TEMPO 2100/2115 3000 -TSRA SCT023 SCT026CB SCT033
Pas de NOTAMs connus pour ce terrain.
1 SIGMET publié pour la FIR Tunis (DTTC) :
 
Orages noyés dans la masse
DTTC SIGMET 01 VALID 210000/210400 DTTA
DTTC TUNIS FIR EMBD TS FCST E OF E0930. TOP BTN FL270/370 STNR NC.=



MET'MAP, la Météo Aéronautique d'un coup d'oeil ! - Copyright ORBIFLY Décembre 2007 - Disclaimer

ORBIFLY MET'MAP TEAM :

Programmation & Développement : Alexandra Zaïnal
Conception & Développement : Baudouin d'Aumeries
Co-Programmation & Développement : Marc-Olivier Méhu
Soutien technique & logistique : Manuel Goepfert

Contact : metmap@orbifly.com




SOURCES & CREDITS :

   NOAA